AirNav   Everest Fuels
 
 1514 users online  

MA64 Pheasant Field Airport
Pembroke, Massachusetts, USA

GOING TO PEMBROKE?


FAA INFORMATION EFFECTIVE 01 DECEMBER 2022

Location

FAA Identifier: MA64
Lat/Long: 42-04-31.3660N 070-48-55.1470W
42-04.522767N 070-48.919117W
42.0753794,-70.8153186
(estimated)
Elevation: 40 ft. / 12 m (estimated)
Variation: 16W (1985)
From city: 1 mile NW of PEMBROKE, MA
Time zone: UTC -5 (UTC -4 during Daylight Saving Time)
Zip code: 02359

Airport Operations

Airport use: Private use. Permission required prior to landing
Activation date: 10/1962
Control tower: no
ARTCC: BOSTON CENTER
FSS: BRIDGEPORT FLIGHT SERVICE STATION
Attendance: UNATNDD
Wind indicator: no
Segmented circle: no

Airport Communications

WX AWOS-3 at GHG (6 nm E): 120.0 (781-837-0555)
WX ASOS at PYM (11 nm S): 135.625 (508-732-8358)
WX ASOS at TAN (15 nm SW): 132.675 (508-824-5005)
WX ASOS at OWD (17 nm NW): 119.95 (781-762-4314)
WX ASOS at BOS (19 nm NW): 135.0 (617-567-5762)

Nearby radio navigation aids

VOR radial/distance  VOR name  Freq  Var
BOSr171/18.6BOSTON VOR/DME112.7016W
PVDr066/34.6PROVIDENCE VOR/DME115.6014W
LFVr292/34.8MARCONI VOR/DME114.7016W

 
NDB name  Hdg/Dist  Freq  Var  ID
STOGE116/14.239715WOW --- .--
PROVINCETOWN287/26.438916WPVC .--. ...- -.-.

Airport Services

Airframe service: NONE
Powerplant service: NONE

Runway Information

Runway N/S

Dimensions: 2000 x 150 ft. / 610 x 46 m
Surface: turf
Operational restrictions: CLSD UFN.
RUNWAY N  RUNWAY S
Traffic pattern: leftleft
Obstructions: 40 ft. trees, 50 ft. from runway60 ft. trees

Airport Ownership and Management from official FAA records

Ownership: Privately-owned
Owner: JOHN E. DUGGAN
PHEASANT LANE
PEMBROKE, MA 02359
Phone 617-293-6385
Manager: JOHN E. DUGGAN
PHEASANT LANE
PEMBROKE, MA 02359
Phone 617-293-6385

Additional Remarks

CONSTRUCTION AT SOUTH END.
EMERGENCY USE ONLY.
FOR CD CTC BOSTON APCH AT 603-594-5551.

Instrument Procedures

There are no published instrument procedures at MA64.

Some nearby airports with instrument procedures:

KGHG - Marshfield Municipal Airport - George Harlow Field (6 nm E)
KPYM - Plymouth Municipal Airport (11 nm S)
KTAN - Taunton Municipal Airport - King Field (15 nm SW)
KOWD - Norwood Memorial Airport (17 nm NW)
1B9 - Mansfield Municipal Airport (18 nm W)
KBOS - General Edward Lawrence Logan International Airport (19 nm NW)
 
Loc | Ops | Rwys | IFR | FBO | Links
Com | Nav | Svcs | Stats | Notes
Area around MA64 (Pheasant Field Airport)
 
Road maps at: MapQuest Bing Google
 
Aerial photo
No photo
 
Sectional chart

 
Airport distance calculator
Flying to Pheasant Field Airport? Find the distance to fly.

From to MA64

Sunrise and sunset
Times for 06-Dec-2022
 Local
(UTC-5)
 Zulu
(UTC)
Morning civil twilight06:2711:27
Sunrise06:5811:58
Sunset16:1121:11
Evening civil twilight16:4221:42

Current date and time
Zulu (UTC)  06-Dec-2022 19:08:15
Local (UTC-5)  06-Dec-2022 14:08:15
 
METAR
KGHG 
7nm E 
061855Z AUTO 15009G16KT 10SM 12/08 A3040 RMK AO2
KPYM 
10nm S 
061852Z AUTO 14006KT 10SM SCT110 14/06 A3040 RMK AO2 SLP296 T01390061
KTAN 
15nm SW 
061852Z AUTO A3038 RMK AO2 SLPNO PWINO FZRANO TSNO $
KOWD 
17nm NW 
061853Z 16011G16KT 10SM BKN120 14/06 A3038 RMK AO2 SLP288 T01390056
KBOS 
20nm NW 
061854Z 12007KT 10SM FEW060 SCT130 OVC200 12/06 A3039 RMK AO2 SLP290 T01170061
TAF
KBOS 
20nm NW 
061729Z 0618/0724 14005KT P6SM BKN100 FM062000 13008KT P6SM VCSH OVC060 FM070400 13009KT P6SM -SHRA OVC040 FM070800 12008KT 6SM -SHRA BR OVC025 FM071200 13009KT 2SM -SHRA BR OVC015 FM071700 16007KT 3SM -SHRA BR OVC010 WS020/18035KT FM072200 17005KT 3SM -SHRA BR OVC008
NOTAMs
Click for the latest NOTAMs
NOTAMs are issued by the DoD/FAA and will open in a separate window not controlled by AirNav.

 

 
 

Would you like to see your business listed on this page?

 If your business provides an interesting product or service to pilots, flight crews, aircraft, or users of the Pheasant Field Airport, you should consider listing it here.  To start the listing process, click on the button below
 
Add a business
 

Other Pages about Pheasant Field Airport

Update a link
 
Copyright © AirNav, LLC. All rights reserved. Privacy Policy  Contact